Portada
METAR-TAF:

METAR-TAF

Aeropuertos :

Aeropuerto de Bilbao

Bilbao, España

latitud: 43-18N, longitud: 002-56W, altitud: 42 m

Observación

El informe se hizo hace 25 minutos, a las 23:00 UTC
Viento 4 kt del este-sureste, variando entre este y sureste
Temperatura 8°C
Humedad 93%
Presión 1013 hPa
Visibilidad 10 km o más
Nubes dispersas a una altura de 4300 ft

METAR: LEBB 312300Z AUTO 11004KT 080V140 9999 SCT043 08/07 Q1013

Hora: 01:25 (23:25 UTC)

Pronóstico

El informe se hizo hace 6 horas y 25 minutos, a las 17:00 UTC
Pronóstico válido del 31 a las 18 UTC al 01 a las 18 UTC
Viento 7 kt del este
Visibilidad 10 km o más
Nubes dispersas a una altura de 1200 ft
Cielo nuboso a una altura de 5000 ft
Probabilidad 30% :
Temporalmente
del 31 a las 18 UTC al 01 a las 18 UTC
Visibilidad: 4000 m
Cielo nuboso a una altura de 1200 ft
lluvia

TAF: LEBB 311700Z 3118/0118 10007KT 9999 SCT012 BKN050 TX13/0115Z TN05/0106Z PROB30 TEMPO 3118/0118 4000 RA BKN012

Observaciones y pronósticos meteorológicos de más de 4000 aeropuertos (mensajes METAR y TAF).

Los puntos amarillos y rojos representan las estaciones disponibles.

Ponga el ratón en el punto deseado para ver el nombre de la estación.

Haga clic para ver las observaciones y los pronósticos meteorológicos.

Para cambiar el mapa : haga clic en los botones verdes con una cruz de color negro para hacer un zoom, en el botón verde con un guión para alejar o en las flechas verdes para mapas adyacentes.


METAR-TAF: